Time;durP1;ratioP1;P1;durP2;ratioP2;P2;SDS_P1;SDS_P2;PMS_P1;PMS_P2;Temp;Humidity;BMP_temperature;BMP_pressure;BME280_temperature;BME280_humidity;BME280_pressure;Samples;Min_cycle;Max_cycle;Signal;HPM_P1;HPM_P2
2023/05/12 00:02:23;;;;;;;;;;;12.90;99.90;;;;;;5133275;28;19940;-43
2023/05/12 00:04:48;;;;;;;;;;;12.90;99.90;;;;;;5133503;28;19907;-43
2023/05/12 00:07:14;;;;;;;;;;;12.90;99.90;;;;;;5131632;28;20361;-43
2023/05/12 00:09:42;;;;;;;;;;;12.90;99.90;;;;;;5132355;28;19907;-42
2023/05/12 00:12:08;;;;;;;;;;;12.90;99.90;;;;;;5132558;28;20360;-43
2023/05/12 00:14:34;;;;;;;;;;;12.90;99.90;;;;;;5121867;28;19912;-43
2023/05/12 00:17:00;;;;;;;;;;;12.90;99.90;;;;;;5133183;28;20269;-43
2023/05/12 00:19:26;;;;;;;;;;;12.90;99.90;;;;;;5133303;28;20350;-45
2023/05/12 00:21:51;;;;;;;;;;;12.90;99.90;;;;;;5132488;28;19908;-42
2023/05/12 00:24:17;;;;;;;;;;;12.90;99.90;;;;;;5133215;28;19908;-43
2023/05/12 00:26:42;;;;;;;;;;;12.90;99.90;;;;;;5133146;28;19946;-43
2023/05/12 00:29:08;;;;;;;;;;;12.90;99.90;;;;;;5115258;28;19969;-43
2023/05/12 00:31:33;;;;;;;;;;;12.90;99.90;;;;;;5112394;28;19908;-44
2023/05/12 00:33:58;;;;;;;;;;;12.90;99.90;;;;;;5111756;28;20393;-43
2023/05/12 00:36:25;;;;;;;;;;;12.90;99.90;;;;;;5112774;28;19916;-43
2023/05/12 00:38:50;;;;;;;;;;;12.90;99.90;;;;;;5112293;28;20312;-44
2023/05/12 00:41:16;;;;;;;;;;;12.90;99.90;;;;;;5114933;28;19911;-42
2023/05/12 00:43:41;;;;;;;;;;;12.90;99.90;;;;;;5116371;28;19908;-43
2023/05/12 00:46:07;;;;;;;;;;;13.00;99.90;;;;;;5116096;28;20339;-43
2023/05/12 00:48:34;;;;;;;;;;;12.90;99.90;;;;;;5115548;28;19915;-43
2023/05/12 00:51:01;;;;;;;;;;;12.90;99.90;;;;;;5116129;28;19908;-42
2023/05/12 00:53:26;;;;;;;;;;;13.00;99.90;;;;;;5115912;28;19920;-44
2023/05/12 00:55:53;;;;;;;;;;;12.90;99.90;;;;;;5115261;28;19915;-43
2023/05/12 00:58:18;;;;;;;;;;;13.00;99.90;;;;;;5125720;27;19963;-42
2023/05/12 01:00:44;;;;;;;;;;;12.90;99.90;;;;;;5136121;27;20009;-42
2023/05/12 01:03:09;;;;;;;;;;;13.00;99.90;;;;;;5135627;27;20334;-42
2023/05/12 01:05:45;;;;;;;;;;;12.90;99.90;;;;;;5136126;27;19911;-43
2023/05/12 01:08:11;;;;;;;;;;;13.00;99.90;;;;;;5136122;27;19942;-43
2023/05/12 01:10:42;;;;;;;;;;;13.00;99.90;;;;;;5135560;27;19911;-42
2023/05/12 01:13:07;;;;;;;;;;;13.00;99.90;;;;;;5136194;27;19949;-45
2023/05/12 01:15:33;;;;;;;;;;;13.00;99.90;;;;;;5136025;27;19957;-43
2023/05/12 01:18:03;;;;;;;;;;;12.90;99.90;;;;;;5135359;27;19908;-43
2023/05/12 01:20:29;;;;;;;;;;;12.90;99.90;;;;;;5136157;27;19951;-43
2023/05/12 01:22:56;;;;;;;;;;;13.00;99.90;;;;;;5136199;27;19907;-43
2023/05/12 01:25:22;;;;;;;;;;;13.00;99.90;;;;;;5135299;27;19908;-43
2023/05/12 01:27:48;;;;;;;;;;;13.00;99.90;;;;;;5135766;27;19943;-43
2023/05/12 01:30:16;;;;;;;;;;;13.00;99.90;;;;;;5134681;27;19939;-42
2023/05/12 01:32:41;;;;;;;;;;;13.00;99.90;;;;;;5135579;27;20018;-42
2023/05/12 01:35:07;;;;;;;;;;;13.00;99.90;;;;;;5135702;27;19951;-43
2023/05/12 01:37:32;;;;;;;;;;;13.00;99.90;;;;;;5135173;27;19919;-45
2023/05/12 01:39:58;;;;;;;;;;;13.00;99.90;;;;;;5135642;27;19913;-43
2023/05/12 01:42:23;;;;;;;;;;;13.00;99.90;;;;;;5135613;27;19908;-42
2023/05/12 01:44:48;;;;;;;;;;;13.00;99.90;;;;;;5134703;27;20354;-43
2023/05/12 01:47:14;;;;;;;;;;;13.00;99.90;;;;;;5135501;27;19912;-43
2023/05/12 01:49:40;;;;;;;;;;;13.00;99.90;;;;;;5135312;27;19908;-42
2023/05/12 01:52:05;;;;;;;;;;;13.00;99.90;;;;;;5134448;27;19911;-43
2023/05/12 01:54:31;;;;;;;;;;;13.00;99.90;;;;;;5133664;27;19907;-43
2023/05/12 01:56:56;;;;;;;;;;;13.00;99.90;;;;;;5135364;27;19915;-42
2023/05/12 01:59:22;;;;;;;;;;;13.00;99.90;;;;;;5134584;27;20024;-44
2023/05/12 02:01:47;;;;;;;;;;;13.00;99.90;;;;;;5135278;27;19907;-44
2023/05/12 02:04:13;;;;;;;;;;;13.10;99.90;;;;;;5135162;27;19996;-42
2023/05/12 02:06:38;;;;;;;;;;;13.00;99.90;;;;;;5128862;27;19912;-43
2023/05/12 02:09:04;;;;;;;;;;;13.00;99.90;;;;;;5134850;27;19911;-43
2023/05/12 02:11:29;;;;;;;;;;;13.00;99.90;;;;;;5135108;27;19950;-42
2023/05/12 02:13:55;;;;;;;;;;;13.00;99.90;;;;;;5134203;27;19923;-42
2023/05/12 02:16:20;;;;;;;;;;;13.00;99.90;;;;;;5134892;27;20331;-43
2023/05/12 02:18:46;;;;;;;;;;;13.00;99.90;;;;;;5135088;27;19918;-42
2023/05/12 02:21:12;;;;;;;;;;;13.00;99.90;;;;;;5133994;27;19918;-42
2023/05/12 02:23:37;;;;;;;;;;;13.00;99.90;;;;;;5134466;27;19908;-43
2023/05/12 02:26:03;;;;;;;;;;;13.00;99.90;;;;;;5134324;27;19919;-42
2023/05/12 02:28:28;;;;;;;;;;;13.00;99.90;;;;;;5133293;27;20288;-42
2023/05/12 02:30:54;;;;;;;;;;;13.10;99.90;;;;;;5134477;27;19912;-42
2023/05/12 02:33:20;;;;;;;;;;;13.00;99.90;;;;;;5134234;27;19930;-43
2023/05/12 02:35:46;;;;;;;;;;;13.00;99.90;;;;;;5133752;27;19908;-43
2023/05/12 02:38:12;;;;;;;;;;;13.10;99.90;;;;;;5134108;27;19959;-43
2023/05/12 02:40:38;;;;;;;;;;;13.10;99.90;;;;;;5133713;27;19998;-42
2023/05/12 02:43:03;;;;;;;;;;;13.10;99.90;;;;;;5134412;27;19907;-42
2023/05/12 02:45:28;;;;;;;;;;;13.00;99.90;;;;;;5134487;27;19914;-43
2023/05/12 02:47:54;;;;;;;;;;;13.00;99.90;;;;;;5133565;27;19918;-43
2023/05/12 02:50:22;;;;;;;;;;;13.10;99.90;;;;;;5134245;27;20320;-43
2023/05/12 02:52:48;;;;;;;;;;;13.10;99.90;;;;;;5134128;27;19988;-43
2023/05/12 02:55:14;;;;;;;;;;;13.00;99.90;;;;;;5118830;27;20367;-43
2023/05/12 02:57:39;;;;;;;;;;;13.00;99.90;;;;;;5113704;28;20002;-42
2023/05/12 03:00:05;;;;;;;;;;;13.10;99.90;;;;;;5113390;28;20018;-42
2023/05/12 03:02:34;;;;;;;;;;;13.10;99.90;;;;;;5112142;28;19919;-43
2023/05/12 03:04:59;;;;;;;;;;;13.10;99.90;;;;;;5113556;28;19907;-42
2023/05/12 03:07:25;;;;;;;;;;;13.10;99.90;;;;;;5113450;28;20366;-43
2023/05/12 03:09:50;;;;;;;;;;;13.10;99.90;;;;;;5112783;28;19961;-42
2023/05/12 03:12:16;;;;;;;;;;;13.10;99.90;;;;;;5113375;28;19955;-44
2023/05/12 03:14:41;;;;;;;;;;;13.00;99.90;;;;;;5113336;28;19953;-42
2023/05/12 03:17:07;;;;;;;;;;;13.00;99.90;;;;;;5112727;28;19908;-43
2023/05/12 03:19:33;;;;;;;;;;;13.00;99.90;;;;;;5113353;28;20385;-43
2023/05/12 03:21:59;;;;;;;;;;;13.00;99.90;;;;;;5113344;28;19951;-42
2023/05/12 03:24:25;;;;;;;;;;;13.00;99.90;;;;;;5118860;27;19951;-42
2023/05/12 03:26:50;;;;;;;;;;;13.00;99.90;;;;;;5133902;27;19943;-42
2023/05/12 03:29:16;;;;;;;;;;;13.00;99.90;;;;;;5133772;27;19912;-42
2023/05/12 03:31:41;;;;;;;;;;;13.00;99.90;;;;;;5132573;27;19915;-43
2023/05/12 03:34:07;;;;;;;;;;;13.00;99.90;;;;;;5133676;27;20022;-42
2023/05/12 03:36:32;;;;;;;;;;;13.00;99.90;;;;;;5133706;28;19918;-42
2023/05/12 03:38:58;;;;;;;;;;;13.00;99.90;;;;;;5132552;28;19911;-42
2023/05/12 03:41:23;;;;;;;;;;;13.00;99.90;;;;;;5133735;28;19964;-42
2023/05/12 03:43:49;;;;;;;;;;;13.10;99.90;;;;;;5133236;28;19908;-43
2023/05/12 03:46:15;;;;;;;;;;;13.10;99.90;;;;;;5133366;28;19998;-41
2023/05/12 03:48:40;;;;;;;;;;;13.10;99.90;;;;;;5133426;28;19908;-42
2023/05/12 03:51:05;;;;;;;;;;;13.10;99.90;;;;;;5132744;28;19937;-44
2023/05/12 03:53:31;;;;;;;;;;;13.10;99.90;;;;;;5133514;28;20401;-42
2023/05/12 03:55:56;;;;;;;;;;;13.10;99.90;;;;;;5132652;28;19946;-43
2023/05/12 03:58:23;;;;;;;;;;;13.10;99.90;;;;;;5131870;28;19907;-43
2023/05/12 04:00:49;;;;;;;;;;;13.10;99.90;;;;;;5132520;28;20354;-43
2023/05/12 04:03:14;;;;;;;;;;;13.10;99.90;;;;;;5132558;28;19912;-44
2023/05/12 04:05:41;;;;;;;;;;;13.10;99.90;;;;;;5131708;28;19914;-42
2023/05/12 04:08:07;;;;;;;;;;;13.10;99.90;;;;;;5132493;28;19937;-42
2023/05/12 04:10:37;;;;;;;;;;;13.10;99.90;;;;;;5132140;28;19915;-43
2023/05/12 04:13:02;;;;;;;;;;;13.10;99.90;;;;;;5131453;28;20331;-42
2023/05/12 04:15:27;;;;;;;;;;;13.10;99.90;;;;;;5134824;27;19907;-42
2023/05/12 04:17:53;;;;;;;;;;;13.10;99.90;;;;;;5137336;27;20361;-42
2023/05/12 04:20:18;;;;;;;;;;;13.20;99.90;;;;;;5136459;27;19908;-42
2023/05/12 04:22:44;;;;;;;;;;;13.20;99.90;;;;;;5137306;27;19907;-43
2023/05/12 04:25:09;;;;;;;;;;;13.20;99.90;;;;;;5137217;27;19907;-42
2023/05/12 04:27:35;;;;;;;;;;;13.20;99.90;;;;;;5136650;27;19917;-43
2023/05/12 04:30:00;;;;;;;;;;;13.20;99.90;;;;;;5136923;27;19994;-43
2023/05/12 04:32:26;;;;;;;;;;;13.20;99.90;;;;;;5136721;27;19919;-43
2023/05/12 04:34:55;;;;;;;;;;;13.30;99.90;;;;;;5136194;27;19914;-43
2023/05/12 04:37:21;;;;;;;;;;;13.20;99.90;;;;;;5136917;27;19911;-42
2023/05/12 04:39:47;;;;;;;;;;;13.30;99.90;;;;;;5126421;27;20286;-42
2023/05/12 04:42:12;;;;;;;;;;;13.20;99.90;;;;;;5115446;28;19914;-43
2023/05/12 04:44:38;;;;;;;;;;;13.30;99.90;;;;;;5116253;28;19908;-43
2023/05/12 04:47:03;;;;;;;;;;;13.30;99.90;;;;;;5116178;28;20358;-43
2023/05/12 04:49:29;;;;;;;;;;;13.30;99.90;;;;;;5115416;28;20354;-42
2023/05/12 04:51:55;;;;;;;;;;;13.30;99.90;;;;;;5115956;28;19908;-41
2023/05/12 04:54:20;;;;;;;;;;;13.30;99.90;;;;;;5115230;28;19922;-42
2023/05/12 04:56:46;;;;;;;;;;;13.30;99.90;;;;;;5116085;28;19908;-42
2023/05/12 04:59:14;;;;;;;;;;;13.30;99.90;;;;;;5115804;28;19912;-43
2023/05/12 05:01:40;;;;;;;;;;;13.30;99.90;;;;;;5114546;28;19912;-44
2023/05/12 05:04:05;;;;;;;;;;;13.40;99.90;;;;;;5115455;28;20131;-43
2023/05/12 05:06:31;;;;;;;;;;;13.40;99.90;;;;;;5115859;28;20211;-42
2023/05/12 05:08:56;;;;;;;;;;;13.40;99.90;;;;;;5115216;27;19938;-43
2023/05/12 05:11:22;;;;;;;;;;;13.40;99.90;;;;;;5121774;27;19964;-42
2023/05/12 05:13:47;;;;;;;;;;;13.50;99.90;;;;;;5136016;27;20366;-43
2023/05/12 05:16:13;;;;;;;;;;;13.50;99.90;;;;;;5135275;27;20353;-43
2023/05/12 05:18:41;;;;;;;;;;;13.50;99.90;;;;;;5136206;27;19908;-43
2023/05/12 05:21:06;;;;;;;;;;;13.50;99.90;;;;;;5136125;27;19908;-42
2023/05/12 05:23:32;;;;;;;;;;;13.50;99.90;;;;;;5135353;27;19913;-42
2023/05/12 05:25:57;;;;;;;;;;;13.60;99.90;;;;;;5135435;27;19907;-42
2023/05/12 05:28:23;;;;;;;;;;;13.60;99.90;;;;;;5135964;27;19943;-42
2023/05/12 05:30:48;;;;;;;;;;;13.60;99.90;;;;;;5135098;27;19907;-42
2023/05/12 05:33:14;;;;;;;;;;;13.60;99.90;;;;;;5135553;27;19919;-42
2023/05/12 05:35:40;;;;;;;;;;;13.60;99.90;;;;;;5135807;27;19914;-43
2023/05/12 05:38:06;;;;;;;;;;;13.70;99.90;;;;;;5134952;27;19912;-42
2023/05/12 05:40:31;;;;;;;;;;;13.70;99.90;;;;;;5118814;27;19911;-42
2023/05/12 05:42:57;;;;;;;;;;;13.70;99.90;;;;;;5124012;27;19912;-42
2023/05/12 05:45:22;;;;;;;;;;;13.70;99.90;;;;;;5124016;27;19915;-42
2023/05/12 05:47:50;;;;;;;;;;;13.70;99.90;;;;;;5124603;27;20341;-42
2023/05/12 05:50:16;;;;;;;;;;;13.80;99.90;;;;;;5123324;27;19918;-41
2023/05/12 05:52:41;;;;;;;;;;;13.70;99.90;;;;;;5124835;27;19916;-42
2023/05/12 05:55:07;;;;;;;;;;;13.80;99.90;;;;;;5123620;27;19911;-43
2023/05/12 05:57:32;;;;;;;;;;;13.80;99.90;;;;;;5124183;27;20327;-43
2023/05/12 05:59:58;;;;;;;;;;;13.80;99.90;;;;;;5125059;27;19911;-42
2023/05/12 06:02:23;;;;;;;;;;;13.80;99.90;;;;;;5135270;27;19908;-42
2023/05/12 06:04:49;;;;;;;;;;;13.80;99.90;;;;;;5124446;27;19919;-43
2023/05/12 06:07:14;;;;;;;;;;;13.80;99.90;;;;;;5124287;27;19935;-42
2023/05/12 06:09:40;;;;;;;;;;;13.80;99.90;;;;;;5123697;27;20270;-42
2023/05/12 06:12:05;;;;;;;;;;;13.80;99.90;;;;;;5124218;27;19915;-43
2023/05/12 06:14:31;;;;;;;;;;;13.80;99.90;;;;;;5128479;27;19914;-44
2023/05/12 06:16:56;;;;;;;;;;;13.80;99.90;;;;;;5133365;27;19923;-42
2023/05/12 06:19:22;;;;;;;;;;;13.80;99.90;;;;;;5133823;27;19916;-43
2023/05/12 06:21:47;;;;;;;;;;;13.80;99.90;;;;;;5123819;27;20447;-43
2023/05/12 06:24:13;;;;;;;;;;;13.70;99.90;;;;;;5123732;27;20018;-42
2023/05/12 06:26:38;;;;;;;;;;;13.70;99.90;;;;;;5117306;27;20346;-43
2023/05/12 06:29:07;;;;;;;;;;;13.80;99.90;;;;;;5114201;27;19918;-42
2023/05/12 06:31:32;;;;;;;;;;;13.70;99.90;;;;;;5118582;27;19956;-42
2023/05/12 06:33:58;;;;;;;;;;;13.70;99.90;;;;;;5120844;27;19919;-42
2023/05/12 06:36:23;;;;;;;;;;;13.70;99.90;;;;;;5114053;28;20359;-42
2023/05/12 06:38:49;;;;;;;;;;;13.70;99.90;;;;;;5132545;27;19968;-43
2023/05/12 06:41:15;;;;;;;;;;;13.70;99.90;;;;;;5127962;27;19999;-43
2023/05/12 06:43:41;;;;;;;;;;;13.70;99.90;;;;;;5134480;27;20318;-43
2023/05/12 06:46:07;;;;;;;;;;;13.70;99.90;;;;;;5139810;27;20138;-42
2023/05/12 06:48:32;;;;;;;;;;;13.70;99.90;;;;;;5142222;27;19912;-42
2023/05/12 06:50:58;;;;;;;;;;;13.70;99.90;;;;;;5115545;27;19908;-41
2023/05/12 06:53:24;;;;;;;;;;;13.80;99.90;;;;;;5134300;27;19923;-42
2023/05/12 06:55:49;;;;;;;;;;;13.80;99.90;;;;;;5131174;27;19912;-44
2023/05/12 06:58:15;;;;;;;;;;;13.80;99.90;;;;;;5124106;27;19914;-42
2023/05/12 07:00:41;;;;;;;;;;;13.80;99.90;;;;;;5121321;27;20308;-42
2023/05/12 07:03:08;;;;;;;;;;;13.90;99.90;;;;;;5123538;27;20316;-43
2023/05/12 07:05:34;;;;;;;;;;;13.90;99.90;;;;;;5125269;27;19940;-42
2023/05/12 07:08:00;;;;;;;;;;;14.00;99.90;;;;;;5132981;27;20374;-42
2023/05/12 07:10:25;;;;;;;;;;;14.00;99.90;;;;;;5125267;27;19919;-43
2023/05/12 07:12:51;;;;;;;;;;;14.10;99.90;;;;;;5123746;27;19966;-41
2023/05/12 07:15:16;;;;;;;;;;;14.10;99.90;;;;;;5121302;27;19952;-43
2023/05/12 07:17:42;;;;;;;;;;;14.20;99.90;;;;;;5126581;27;19912;-42
2023/05/12 07:20:08;;;;;;;;;;;14.20;99.90;;;;;;5123160;27;20006;-42
2023/05/12 07:22:34;;;;;;;;;;;14.30;99.90;;;;;;5128417;27;19958;-42
2023/05/12 07:24:59;;;;;;;;;;;14.40;99.90;;;;;;5123623;27;20366;-43
2023/05/12 07:27:25;;;;;;;;;;;14.30;99.90;;;;;;5120623;28;19908;-41
2023/05/12 07:29:51;;;;;;;;;;;14.40;99.90;;;;;;5123546;27;20010;-43
2023/05/12 07:32:16;;;;;;;;;;;14.40;99.90;;;;;;5124715;27;20297;-42
2023/05/12 07:34:42;;;;;;;;;;;14.40;99.90;;;;;;5122940;27;19959;-42
2023/05/12 07:37:07;;;;;;;;;;;14.40;99.90;;;;;;5132430;27;20373;-42
2023/05/12 07:39:33;;;;;;;;;;;14.50;99.90;;;;;;5124712;27;19911;-42
2023/05/12 07:41:58;;;;;;;;;;;14.60;99.90;;;;;;5121825;27;19919;-43
2023/05/12 07:44:24;;;;;;;;;;;14.60;99.90;;;;;;5116101;28;19958;-41
2023/05/12 07:46:49;;;;;;;;;;;14.70;99.90;;;;;;5124422;28;20392;-42
2023/05/12 07:49:15;;;;;;;;;;;14.70;99.90;;;;;;5135186;27;20484;-42
2023/05/12 07:51:40;;;;;;;;;;;14.70;99.90;;;;;;5130447;27;20013;-41
2023/05/12 07:54:06;;;;;;;;;;;14.70;99.90;;;;;;5126271;27;19919;-42
2023/05/12 07:56:31;;;;;;;;;;;14.70;99.90;;;;;;5126876;27;19951;-42
2023/05/12 07:58:57;;;;;;;;;;;14.80;99.90;;;;;;5123967;27;19912;-42
2023/05/12 08:01:23;;;;;;;;;;;14.80;99.90;;;;;;5124983;27;19907;-42
2023/05/12 08:03:50;;;;;;;;;;;14.90;99.90;;;;;;5120995;27;19911;-42
2023/05/12 08:06:15;;;;;;;;;;;15.00;99.90;;;;;;5127362;27;20410;-42
2023/05/12 08:08:41;;;;;;;;;;;15.00;99.90;;;;;;5132245;27;19994;-42
2023/05/12 08:11:06;;;;;;;;;;;15.00;99.90;;;;;;5135431;27;19920;-43
2023/05/12 08:13:32;;;;;;;;;;;15.10;99.90;;;;;;5139050;27;19924;-42
2023/05/12 08:15:57;;;;;;;;;;;15.10;99.90;;;;;;5130184;27;20374;-42
2023/05/12 08:18:23;;;;;;;;;;;15.10;99.90;;;;;;5115974;28;19996;-42
2023/05/12 08:20:51;;;;;;;;;;;15.20;99.90;;;;;;5129764;27;19916;-42
2023/05/12 08:23:17;;;;;;;;;;;15.30;99.90;;;;;;5157549;27;19964;-42
2023/05/12 08:25:43;;;;;;;;;;;15.40;99.90;;;;;;5148351;27;19914;-44
2023/05/12 08:28:09;;;;;;;;;;;15.40;99.90;;;;;;5149004;27;19911;-42
2023/05/12 08:30:34;;;;;;;;;;;15.40;99.90;;;;;;5158484;27;19908;-42
2023/05/12 08:33:01;;;;;;;;;;;15.40;99.90;;;;;;5140882;27;19919;-42
2023/05/12 08:35:27;;;;;;;;;;;15.50;99.90;;;;;;5137684;27;19914;-42
2023/05/12 08:37:52;;;;;;;;;;;15.60;99.90;;;;;;5137607;27;19908;-42
2023/05/12 08:40:21;;;;;;;;;;;15.60;99.90;;;;;;5130333;27;19932;-42
2023/05/12 08:42:49;;;;;;;;;;;15.70;99.90;;;;;;5129399;27;19911;-43
2023/05/12 08:45:14;;;;;;;;;;;15.80;99.90;;;;;;5120553;27;19965;-42
2023/05/12 08:47:41;;;;;;;;;;;15.90;99.90;;;;;;5136016;27;19958;-42
2023/05/12 08:50:07;;;;;;;;;;;16.00;99.90;;;;;;5130387;27;19957;-42
2023/05/12 08:52:35;;;;;;;;;;;16.10;99.90;;;;;;5115626;28;19920;-43
2023/05/12 08:55:00;;;;;;;;;;;16.20;99.90;;;;;;5113975;28;19985;-43
2023/05/12 08:57:27;;;;;;;;;;;16.40;99.90;;;;;;5115035;28;20386;-42
2023/05/12 08:59:53;;;;;;;;;;;16.60;99.90;;;;;;5127421;27;19937;-42
2023/05/12 09:02:20;;;;;;;;;;;16.80;99.90;;;;;;5137976;27;20269;-41
2023/05/12 09:04:47;;;;;;;;;;;16.90;99.90;;;;;;5140639;27;19954;-43
2023/05/12 09:07:12;;;;;;;;;;;16.90;99.90;;;;;;5132876;27;19923;-42
2023/05/12 09:09:39;;;;;;;;;;;17.00;99.90;;;;;;5128451;27;19912;-43
2023/05/12 09:12:09;;;;;;;;;;;17.00;99.90;;;;;;5135440;27;19954;-43
2023/05/12 09:14:36;;;;;;;;;;;17.10;99.90;;;;;;5129966;27;19962;-42
2023/05/12 09:17:03;;;;;;;;;;;17.30;99.90;;;;;;5141174;27;19979;-43
2023/05/12 09:19:28;;;;;;;;;;;17.40;99.90;;;;;;5118290;27;20353;-43
2023/05/12 09:21:54;;;;;;;;;;;17.50;99.90;;;;;;5114084;28;19908;-42
2023/05/12 09:24:21;;;;;;;;;;;17.50;99.90;;;;;;5131825;27;19918;-42
2023/05/12 09:26:47;;;;;;;;;;;17.60;99.90;;;;;;5129688;27;19926;-43
2023/05/12 09:29:13;;;;;;;;;;;17.80;99.90;;;;;;5134723;27;20034;-43
2023/05/12 09:31:47;;;;;;;;;;;17.90;99.90;;;;;;5135422;27;20351;-42
2023/05/12 09:34:12;;;;;;;;;;;18.00;99.90;;;;;;5139716;27;20368;-42
2023/05/12 09:36:38;;;;;;;;;;;18.00;99.90;;;;;;5138485;27;19923;-42
2023/05/12 09:39:04;;;;;;;;;;;18.10;99.90;;;;;;5122896;27;19918;-43
2023/05/12 09:41:30;;;;;;;;;;;18.20;99.90;;;;;;5113167;28;19908;-42
2023/05/12 09:43:58;;;;;;;;;;;18.30;99.90;;;;;;5116158;27;19911;-42
2023/05/12 09:46:24;;;;;;;;;;;18.40;99.90;;;;;;5123931;27;19932;-43
2023/05/12 09:48:50;;;;;;;;;;;18.50;99.90;;;;;;5121986;27;19999;-41
2023/05/12 09:51:19;;;;;;;;;;;18.60;99.90;;;;;;5122737;27;19985;-43
2023/05/12 09:53:45;;;;;;;;;;;18.80;99.90;;;;;;5124642;27;20320;-41
2023/05/12 09:56:12;;;;;;;;;;;19.00;99.90;;;;;;5125532;27;19908;-41
2023/05/12 09:58:40;;;;;;;;;;;19.00;99.90;;;;;;5122023;27;19916;-41
2023/05/12 10:01:07;;;;;;;;;;;19.10;99.90;;;;;;5124656;27;19912;-42
2023/05/12 10:03:33;;;;;;;;;;;19.10;99.90;;;;;;5125316;27;19907;-42
2023/05/12 10:06:01;;;;;;;;;;;19.00;99.90;;;;;;5122617;27;19943;-43
2023/05/12 10:08:31;;;;;;;;;;;19.00;99.90;;;;;;5124396;27;19976;-41
2023/05/12 10:10:58;;;;;;;;;;;19.00;99.90;;;;;;5122621;27;19918;-42
2023/05/12 10:13:25;;;;;;;;;;;18.90;99.90;;;;;;5124221;27;20410;-42
2023/05/12 10:15:53;;;;;;;;;;;18.90;99.90;;;;;;5125251;27;19908;-42
2023/05/12 10:18:20;;;;;;;;;;;18.80;99.90;;;;;;5122954;27;19991;-42
2023/05/12 10:20:46;;;;;;;;;;;18.90;99.90;;;;;;5129692;27;20033;-42
2023/05/12 10:23:13;;;;;;;;;;;19.00;99.90;;;;;;5135426;27;19915;-42
2023/05/12 10:25:43;;;;;;;;;;;19.20;99.90;;;;;;5134860;27;19915;-42
2023/05/12 10:28:08;;;;;;;;;;;19.30;99.90;;;;;;5134147;27;20381;-42
2023/05/12 10:30:34;;;;;;;;;;;19.40;99.90;;;;;;5135340;27;19918;-41
2023/05/12 10:33:01;;;;;;;;;;;19.40;99.90;;;;;;5134059;27;20262;-42
2023/05/12 10:35:31;;;;;;;;;;;19.50;99.90;;;;;;5134609;27;19918;-42
2023/05/12 10:37:59;;;;;;;;;;;19.60;99.90;;;;;;5133769;27;19915;-42
2023/05/12 10:40:25;;;;;;;;;;;19.90;99.90;;;;;;5134501;27;20355;-41
2023/05/12 10:42:51;;;;;;;;;;;19.90;99.90;;;;;;5134618;27;19950;-41
2023/05/12 10:45:18;;;;;;;;;;;20.00;99.90;;;;;;5141741;27;19933;-41
2023/05/12 10:47:47;;;;;;;;;;;20.10;99.90;;;;;;5142881;27;19911;-41
2023/05/12 10:50:12;;;;;;;;;;;20.20;99.90;;;;;;5140123;27;20392;-42
2023/05/12 10:52:38;;;;;;;;;;;20.30;99.90;;;;;;5129415;27;19923;-42
2023/05/12 10:55:09;;;;;;;;;;;20.40;99.90;;;;;;5123908;27;19912;-42
2023/05/12 10:57:45;;;;;;;;;;;20.50;99.90;;;;;;5132775;27;19911;-41
2023/05/12 11:00:11;;;;;;;;;;;20.60;99.90;;;;;;5115203;27;20378;-43
2023/05/12 11:02:47;;;;;;;;;;;20.70;99.90;;;;;;5140460;27;19911;-42
2023/05/12 11:05:12;;;;;;;;;;;20.60;99.90;;;;;;5155566;27;19907;-42
2023/05/12 11:07:38;;;;;;;;;;;20.70;99.90;;;;;;5138129;27;19908;-43
2023/05/12 11:10:04;;;;;;;;;;;20.80;99.90;;;;;;5136932;27;19938;-41
2023/05/12 11:12:34;;;;;;;;;;;20.80;99.90;;;;;;5123853;27;20282;-42
2023/05/12 11:15:00;;;;;;;;;;;20.80;99.90;;;;;;5112598;28;19915;-41
2023/05/12 11:17:26;;;;;;;;;;;20.80;99.90;;;;;;5131617;27;19968;-43
2023/05/12 11:19:51;;;;;;;;;;;20.90;99.90;;;;;;5134034;27;19953;-43
2023/05/12 11:22:18;;;;;;;;;;;21.00;99.90;;;;;;5133181;27;19921;-41
2023/05/12 11:24:44;;;;;;;;;;;21.10;99.90;;;;;;5133478;27;19953;-42
2023/05/12 11:27:13;;;;;;;;;;;21.20;99.90;;;;;;5133778;27;19912;-42
2023/05/12 11:29:40;;;;;;;;;;;21.30;99.90;;;;;;5114480;27;20012;-43
2023/05/12 11:32:07;;;;;;;;;;;21.40;99.90;;;;;;5112787;28;19926;-41
2023/05/12 11:34:34;;;;;;;;;;;21.50;99.90;;;;;;5112418;28;20288;-42
2023/05/12 11:36:59;;;;;;;;;;;21.60;99.90;;;;;;5112373;28;20006;-42
2023/05/12 11:39:26;;;;;;;;;;;21.60;99.90;;;;;;5113115;28;19999;-41
2023/05/12 11:41:52;;;;;;;;;;;21.70;99.90;;;;;;5113131;28;19929;-43
2023/05/12 11:44:21;;;;;;;;;;;21.80;99.90;;;;;;5112035;28;20346;-41
2023/05/12 11:46:56;;;;;;;;;;;21.80;99.90;;;;;;5136435;27;19912;-41
2023/05/12 11:49:21;;;;;;;;;;;21.70;99.90;;;;;;5139740;27;19915;-42
2023/05/12 11:51:49;;;;;;;;;;;21.70;99.90;;;;;;5144177;27;20377;-42
2023/05/12 11:54:15;;;;;;;;;;;21.70;99.90;;;;;;5146713;27;19941;-42
2023/05/12 11:56:46;;;;;;;;;;;21.80;99.90;;;;;;5144154;27;19915;-42
2023/05/12 11:59:11;;;;;;;;;;;21.70;99.90;;;;;;5114863;28;20365;-43
2023/05/12 12:01:43;;;;;;;;;;;21.80;99.90;;;;;;5120342;27;19907;-42
2023/05/12 12:04:09;;;;;;;;;;;21.90;99.90;;;;;;5129663;28;19915;-42
2023/05/12 12:06:41;;;;;;;;;;;22.00;99.90;;;;;;5112572;28;19916;-42
2023/05/12 12:09:07;;;;;;;;;;;22.10;99.90;;;;;;5125989;27;20409;-42
2023/05/12 12:11:33;;;;;;;;;;;22.20;99.90;;;;;;5136452;27;20001;-42
2023/05/12 12:13:59;;;;;;;;;;;22.20;99.90;;;;;;5132833;27;20026;-42
2023/05/12 12:22:34;;;;;;;;;;;22.30;99.90;;;;;;5130808;28;20020;-42
2023/05/12 12:25:00;;;;;;;;;;;22.40;99.90;;;;;;5132259;27;20357;-42
2023/05/12 12:27:26;;;;;;;;;;;22.40;99.90;;;;;;5147839;27;19915;-42
2023/05/12 12:29:51;;;;;;;;;;;22.40;99.90;;;;;;5147788;27;19911;-42
2023/05/12 12:32:17;;;;;;;;;;;22.50;99.90;;;;;;5132293;28;19927;-43
2023/05/12 12:34:43;;;;;;;;;;;22.70;99.90;;;;;;5138093;27;19916;-41
2023/05/12 12:37:09;;;;;;;;;;;22.70;99.90;;;;;;5138742;27;19907;-42
2023/05/12 12:39:35;;;;;;;;;;;22.90;99.90;;;;;;5143961;27;19912;-42
2023/05/12 12:42:00;;;;;;;;;;;23.10;99.90;;;;;;5129069;27;19965;-41
2023/05/12 12:44:25;;;;;;;;;;;23.40;99.90;;;;;;5142203;27;19912;-42
2023/05/12 12:46:51;;;;;;;;;;;23.60;99.90;;;;;;5136329;27;19931;-43
2023/05/12 12:49:16;;;;;;;;;;;23.90;99.90;;;;;;5131423;27;19960;-42
2023/05/12 12:51:42;;;;;;;;;;;24.10;99.90;;;;;;5117048;28;20357;-41
2023/05/12 12:54:07;;;;;;;;;;;24.40;99.90;;;;;;5115078;27;19968;-42
2023/05/12 12:56:33;;;;;;;;;;;24.80;99.90;;;;;;5115924;28;19966;-42
2023/05/12 12:58:58;;;;;;;;;;;24.90;99.90;;;;;;5115993;28;19915;-42
2023/05/12 13:01:24;;;;;;;;;;;24.80;99.90;;;;;;5113143;27;20354;-42
2023/05/12 13:03:49;;;;;;;;;;;24.90;99.90;;;;;;5116754;27;19908;-43
2023/05/12 13:06:15;;;;;;;;;;;24.50;99.90;;;;;;5124512;27;19914;-41
2023/05/12 13:08:41;;;;;;;;;;;24.10;99.90;;;;;;5115538;27;20262;-43
2023/05/12 13:11:07;;;;;;;;;;;24.10;99.90;;;;;;5114295;28;20389;-42
2023/05/12 13:13:33;;;;;;;;;;;24.40;99.90;;;;;;5115535;28;19920;-43
2023/05/12 13:15:58;;;;;;;;;;;24.90;99.90;;;;;;5115575;28;19912;-44
2023/05/12 13:18:24;;;;;;;;;;;25.40;99.90;;;;;;5125123;27;20368;-42
2023/05/12 13:20:50;;;;;;;;;;;25.60;99.90;;;;;;5146733;27;19914;-42
2023/05/12 13:23:15;;;;;;;;;;;25.80;99.90;;;;;;5126034;27;19935;-44
2023/05/12 13:25:43;;;;;;;;;;;26.00;99.90;;;;;;5138847;27;20361;-43
2023/05/12 13:28:09;;;;;;;;;;;25.80;99.90;;;;;;5156739;27;19918;-43
2023/05/12 13:30:35;;;;;;;;;;;25.90;99.90;;;;;;5145109;27;19907;-44
2023/05/12 13:33:01;;;;;;;;;;;26.20;99.90;;;;;;5135947;27;20265;-43
2023/05/12 13:35:26;;;;;;;;;;;26.50;99.90;;;;;;5135763;27;19911;-42
2023/05/12 13:37:52;;;;;;;;;;;26.80;98.00;;;;;;5136463;27;19907;-43
2023/05/12 13:40:17;;;;;;;;;;;27.10;93.80;;;;;;5135934;27;19911;-42
2023/05/12 13:42:43;;;;;;;;;;;27.50;94.60;;;;;;5135860;27;19908;-43
2023/05/12 13:45:09;;;;;;;;;;;27.40;96.80;;;;;;5136048;27;19912;-42
2023/05/12 13:47:34;;;;;;;;;;;27.00;97.70;;;;;;5135922;27;20258;-42
2023/05/12 13:50:00;;;;;;;;;;;26.60;86.00;;;;;;5127956;27;19908;-43
2023/05/12 13:52:26;;;;;;;;;;;26.10;99.60;;;;;;5115405;28;19934;-42
2023/05/12 13:54:51;;;;;;;;;;;25.70;99.90;;;;;;5115809;27;19953;-42
2023/05/12 13:57:17;;;;;;;;;;;25.30;99.90;;;;;;5130869;27;19911;-42
2023/05/12 13:59:42;;;;;;;;;;;24.90;99.90;;;;;;5117731;27;19908;-44
2023/05/12 14:02:10;;;;;;;;;;;24.50;99.90;;;;;;5134124;27;19921;-42
2023/05/12 14:04:36;;;;;;;;;;;24.10;99.90;;;;;;5123743;27;19994;-43
2023/05/12 14:07:02;;;;;;;;;;;23.80;99.90;;;;;;5135813;27;20397;-42
2023/05/12 14:09:27;;;;;;;;;;;23.50;99.90;;;;;;5122891;27;19919;-46
2023/05/12 14:11:53;;;;;;;;;;;23.30;99.90;;;;;;5114697;28;19912;-43
2023/05/12 14:14:18;;;;;;;;;;;23.20;99.90;;;;;;5114096;28;19915;-43
2023/05/12 14:16:44;;;;;;;;;;;23.10;99.90;;;;;;5114951;28;19908;-42